Time;durP1;ratioP1;P1;durP2;ratioP2;P2;SDS_P1;SDS_P2;PMS_P1;PMS_P2;Temp;Humidity;BMP_temperature;BMP_pressure;BME280_temperature;BME280_humidity;BME280_pressure;Samples;Min_cycle;Max_cycle;Signal;HPM_P1;HPM_P2
2023/04/01 00:02:19;;;;;;;56.60;22.05;;;;;;;4.70;100.00;97700.53;5138963;28;20051;-62
2023/04/01 00:04:45;;;;;;;74.75;20.85;;;;;;;4.74;100.00;97692.47;5139314;27;20104;-63
2023/04/01 00:07:11;;;;;;;48.53;18.88;;;;;;;4.67;100.00;97695.06;5139136;28;20055;-65
2023/04/01 00:09:37;;;;;;;61.70;20.48;;;;;;;4.41;100.00;97660.47;5139067;28;20079;-66
2023/04/01 00:12:03;;;;;;;42.45;17.23;;;;;;;4.67;100.00;97635.34;5138975;28;20051;-63
2023/04/01 00:14:30;;;;;;;35.25;17.17;;;;;;;4.63;100.00;97635.28;5139030;28;20130;-67
2023/04/01 00:16:56;;;;;;;51.22;18.20;;;;;;;4.77;100.00;97636.66;5138871;28;20142;-67
2023/04/01 00:19:22;;;;;;;63.85;18.75;;;;;;;4.87;100.00;97644.97;5138798;28;20057;-63
2023/04/01 00:21:48;;;;;;;39.72;17.15;;;;;;;4.54;100.00;97672.72;5138870;28;20058;-63
2023/04/01 00:24:14;;;;;;;47.92;17.23;;;;;;;4.77;100.00;97670.03;5138060;27;20104;-63
2023/04/01 00:26:42;;;;;;;50.00;18.15;;;;;;;4.83;100.00;97684.06;5138788;28;20141;-67
2023/04/01 00:29:08;;;;;;;59.72;18.90;;;;;;;4.79;100.00;97691.38;5138594;28;20047;-68
2023/04/01 00:31:34;;;;;;;45.65;17.40;;;;;;;4.72;100.00;97705.59;5138863;28;20317;-66
2023/04/01 00:34:00;;;;;;;39.08;17.92;;;;;;;4.75;100.00;97698.66;5141101;28;20057;-66
2023/04/01 00:36:26;;;;;;;35.67;17.55;;;;;;;4.79;100.00;97699.50;5141178;27;20047;-64
2023/04/01 00:38:52;;;;;;;60.15;18.42;;;;;;;4.72;100.00;97698.22;5138643;28;20137;-65
2023/04/01 00:41:20;;;;;;;30.88;17.25;;;;;;;4.77;100.00;97702.59;5138518;28;20085;-63
2023/04/01 00:43:49;;;;;;;43.67;17.35;;;;;;;4.77;100.00;97691.75;5138366;28;20057;-65
2023/04/01 00:46:15;;;;;;;41.60;17.05;;;;;;;4.77;100.00;97691.75;5138201;28;20497;-67
2023/04/01 00:48:47;;;;;;;34.97;16.73;;;;;;;4.69;100.00;97709.03;5138576;28;20051;-67
2023/04/01 00:51:17;;;;;;;37.92;16.38;;;;;;;4.80;100.00;97710.03;5138029;28;20043;-63
2023/04/01 00:53:47;;;;;;;35.47;15.93;;;;;;;4.79;100.00;97718.50;5138541;28;20298;-61
2023/04/01 00:56:17;;;;;;;30.58;15.98;;;;;;;4.81;100.00;97727.09;5138021;28;20051;-63
2023/04/01 00:58:48;;;;;;;40.30;16.65;;;;;;;4.83;100.00;97724.78;5138472;28;20286;-62
2023/04/01 01:01:15;;;;;;;38.00;16.42;;;;;;;4.86;100.00;97713.97;5137927;28;20508;-62
2023/04/01 01:03:41;;;;;;;38.25;16.63;;;;;;;4.87;100.00;97714.78;5138218;28;20123;-66
2023/04/01 01:06:23;;;;;;;41.35;15.80;;;;;;;4.89;100.00;97724.13;5138126;27;20115;-65
2023/04/01 01:09:13;;;;;;;44.65;17.63;;;;;;;4.88;100.00;97717.13;5137851;28;20416;-66
2023/04/01 01:11:45;;;;;;;61.97;16.80;;;;;;;4.90;100.00;97717.56;5138040;28;20050;-66
2023/04/01 01:14:23;;;;;;;42.17;16.13;;;;;;;4.90;100.00;97714.84;5138140;28;20160;-62
2023/04/01 01:16:56;;;;;;;42.47;16.27;;;;;;;4.88;100.00;97724.50;5138223;28;20077;-68
2023/04/01 01:19:51;;;;;;;84.40;18.30;;;;;;;4.90;100.00;97717.56;5137696;28;20051;-62
2023/04/01 01:22:52;;;;;;;51.95;17.40;;;;;;;4.86;100.00;97715.91;5093176;28;20332;-65
2023/04/01 01:25:32;;;;;;;37.15;17.15;;;;;;;4.93;100.00;97718.75;5138071;28;20058;-66
2023/04/01 01:28:15;;;;;;;56.22;16.98;;;;;;;4.92;100.00;97720.69;5137507;28;20078;-60
2023/04/01 01:30:50;;;;;;;39.20;17.10;;;;;;;4.91;100.00;97716.41;5137702;28;20392;-64
2023/04/01 01:33:35;;;;;;;48.60;16.98;;;;;;;4.59;100.00;97706.91;5137812;28;20082;-64
2023/04/01 01:36:07;;;;;;;58.63;17.20;;;;;;;4.86;100.00;97700.41;5136696;27;20181;-65
2023/04/01 01:38:35;;;;;;;54.08;16.05;;;;;;;4.79;100.00;97707.66;5137555;28;20057;-63
2023/04/01 01:41:03;;;;;;;38.97;16.83;;;;;;;4.59;100.00;97710.41;5137457;28;20047;-66
2023/04/01 01:43:32;;;;;;;61.97;16.25;;;;;;;4.56;100.00;97702.22;5137795;28;20146;-63
2023/04/01 01:46:02;;;;;;;57.13;14.85;;;;;;;4.68;100.00;97688.47;5137197;28;20417;-64
2023/04/01 01:48:31;;;;;;;58.08;15.13;;;;;;;4.80;100.00;97696.44;5137565;28;20142;-60
2023/04/01 01:50:57;;;;;;;52.08;14.75;;;;;;;4.83;100.00;97706.59;5137430;28;20141;-60
2023/04/01 01:53:24;;;;;;;40.90;16.60;;;;;;;4.80;100.00;97722.78;5137465;28;20074;-62
2023/04/01 01:55:50;;;;;;;44.35;17.10;;;;;;;4.96;100.00;97715.31;5137345;28;20138;-63
2023/04/01 01:58:19;;;;;;;58.95;16.50;;;;;;;4.97;100.00;97711.47;5137308;28;20047;-66
2023/04/01 02:00:50;;;;;;;70.20;16.08;;;;;;;4.99;100.00;97711.88;5137595;28;20051;-63
2023/04/01 02:03:20;;;;;;;40.03;15.30;;;;;;;4.72;100.00;97708.31;5137181;28;20066;-66
2023/04/01 02:05:46;;;;;;;53.35;19.08;;;;;;;4.95;100.00;97692.03;5137485;27;20051;-62
2023/04/01 02:08:17;;;;;;;78.93;18.13;;;;;;;5.06;100.00;97684.81;5137019;28;20070;-61
2023/04/01 02:10:49;;;;;;;105.88;19.23;;;;;;;5.15;100.00;97679.13;5137547;28;20042;-65
2023/04/01 02:13:20;;;;;;;80.50;18.65;;;;;;;5.10;100.00;97677.53;5136999;28;20047;-61
2023/04/01 02:15:50;;;;;;;60.42;17.05;;;;;;;5.12;100.00;97685.31;5137182;28;20357;-63
2023/04/01 02:18:18;;;;;;;72.35;17.15;;;;;;;5.10;100.00;97688.41;5137074;28;20047;-62
2023/04/01 02:20:45;;;;;;;43.97;16.75;;;;;;;5.02;100.00;97688.63;5136988;28;20146;-63
2023/04/01 02:23:11;;;;;;;121.65;18.02;;;;;;;5.19;100.00;97680.75;5137292;28;20055;-65
2023/04/01 02:25:40;;;;;;;65.80;17.58;;;;;;;5.01;100.00;97677.00;5136929;28;20137;-59
2023/04/01 02:28:09;;;;;;;61.80;15.25;;;;;;;5.05;100.00;97687.91;5137218;28;20078;-60
2023/04/01 02:30:38;;;;;;;53.97;15.45;;;;;;;4.89;100.00;97699.69;5136788;28;20054;-61
2023/04/01 02:33:05;;;;;;;54.92;14.75;;;;;;;4.54;100.00;97693.66;5137148;28;20055;-67
2023/04/01 02:35:33;;;;;;;57.47;14.80;;;;;;;4.60;100.00;97643.34;5136597;27;20400;-65
2023/04/01 02:38:00;;;;;;;55.03;16.63;;;;;;;4.22;100.00;97628.72;5136889;28;20134;-65
2023/04/01 02:40:26;;;;;;;92.68;17.52;;;;;;;4.85;100.00;97576.66;5136964;28;20443;-59
2023/04/01 02:42:52;;;;;;;44.58;16.52;;;;;;;4.90;100.00;97591.88;5136534;28;20103;-61
2023/04/01 02:45:19;;;;;;;52.17;15.57;;;;;;;4.91;100.00;97612.44;5136739;28;20051;-64
2023/04/01 02:47:45;;;;;;;59.80;16.77;;;;;;;4.99;100.00;97619.53;5137254;27;20044;-63
2023/04/01 02:50:11;;;;;;;57.00;16.92;;;;;;;4.90;100.00;97625.22;5140299;28;20490;-65
2023/04/01 02:52:37;;;;;;;37.63;15.50;;;;;;;5.05;100.00;97626.22;5139978;28;20057;-61
2023/04/01 02:55:04;;;;;;;39.85;16.58;;;;;;;5.00;100.00;97650.19;5140441;28;20043;-60
2023/04/01 02:57:30;;;;;;;63.30;17.38;;;;;;;5.03;100.00;97652.97;5140036;28;20047;-66
2023/04/01 02:59:56;;;;;;;47.58;15.75;;;;;;;5.03;100.00;97655.69;5140425;28;20139;-64
2023/04/01 03:02:22;;;;;;;51.30;15.68;;;;;;;5.10;100.00;97657.75;5139837;28;20519;-62
2023/04/01 03:04:48;;;;;;;48.80;15.82;;;;;;;4.96;100.00;97674.56;5140296;27;20316;-63
2023/04/01 03:07:14;;;;;;;74.60;16.98;;;;;;;5.05;100.00;97683.25;5140097;28;20078;-63
2023/04/01 03:09:40;;;;;;;53.33;16.23;;;;;;;5.03;100.00;97673.91;5139990;28;20142;-61
2023/04/01 03:12:06;;;;;;;66.57;14.68;;;;;;;5.09;100.00;97659.66;5139746;28;20145;-62
2023/04/01 03:14:32;;;;;;;35.53;14.57;;;;;;;4.88;100.00;97653.91;5139965;28;20192;-66
2023/04/01 03:16:58;;;;;;;97.72;18.63;;;;;;;4.93;100.00;97645.44;5139980;28;20054;-65
2023/04/01 03:19:25;;;;;;;39.55;16.55;;;;;;;4.36;100.00;97652.63;5139733;28;20142;-63
2023/04/01 03:21:50;;;;;;;56.03;15.02;;;;;;;4.52;100.00;97625.38;5140014;28;20340;-65
2023/04/01 03:24:16;;;;;;;37.30;14.73;;;;;;;4.75;100.00;97620.72;5139555;28;20138;-65
2023/04/01 03:26:42;;;;;;;69.70;17.40;;;;;;;4.62;100.00;97622.84;5139992;28;20055;-63
2023/04/01 03:29:08;;;;;;;54.00;17.35;;;;;;;4.54;100.00;97632.00;5139506;28;20079;-60
2023/04/01 03:31:34;;;;;;;63.90;17.02;;;;;;;4.38;100.00;97639.50;5139807;28;20305;-61
2023/04/01 03:34:00;;;;;;;62.20;19.45;;;;;;;4.60;100.00;97608.84;5139285;28;20083;-62
2023/04/01 03:36:27;;;;;;;57.10;17.20;;;;;;;4.55;100.00;97603.72;5139535;27;20086;-64
2023/04/01 03:38:53;;;;;;;36.67;15.93;;;;;;;4.60;100.00;97611.56;5139318;28;20047;-60
2023/04/01 03:41:18;;;;;;;112.38;16.92;;;;;;;4.67;100.00;97627.97;5139241;28;20111;-65
2023/04/01 03:43:45;;;;;;;58.45;15.23;;;;;;;4.77;100.00;97632.00;5139354;28;20043;-66
2023/04/01 03:46:11;;;;;;;107.15;17.13;;;;;;;4.66;100.00;97633.75;5139208;28;20554;-59
2023/04/01 03:48:37;;;;;;;154.55;16.63;;;;;;;4.58;100.00;97641.00;5139364;28;20423;-65
2023/04/01 03:51:07;;;;;;;107.35;14.40;;;;;;;4.66;100.00;97641.88;5139129;28;20056;-65
2023/04/01 03:53:34;;;;;;;74.38;15.98;;;;;;;4.43;100.00;97658.16;5139547;28;20043;-63
2023/04/01 03:56:04;;;;;;;215.70;16.15;;;;;;;4.48;100.00;97649.75;5139185;28;20420;-63
2023/04/01 03:58:30;;;;;;;105.45;13.93;;;;;;;4.27;100.00;97643.94;5139547;28;20047;-66
2023/04/01 04:00:56;;;;;;;51.03;15.43;;;;;;;3.97;100.00;97631.00;5139752;27;20384;-65
2023/04/01 04:03:22;;;;;;;73.28;19.38;;;;;;;4.39;100.00;97594.91;5139795;28;20082;-65
2023/04/01 04:05:49;;;;;;;52.08;15.65;;;;;;;4.48;100.00;97598.97;5140056;27;20057;-66
2023/04/01 04:08:15;;;;;;;54.10;14.23;;;;;;;4.56;100.00;97612.66;5138890;28;20416;-66
2023/04/01 04:10:43;;;;;;;97.50;15.07;;;;;;;4.44;100.00;97619.84;5139144;28;20059;-63
2023/04/01 04:13:09;;;;;;;146.65;16.48;;;;;;;4.67;100.00;97630.69;5138980;28;20393;-66
2023/04/01 04:15:35;;;;;;;65.85;14.75;;;;;;;4.74;100.00;97650.97;5139066;28;20145;-61
2023/04/01 04:18:01;;;;;;;50.40;14.57;;;;;;;4.63;100.00;97665.13;5138807;28;20142;-60
2023/04/01 04:20:27;;;;;;;117.43;16.88;;;;;;;4.56;100.00;97672.34;5138921;28;20487;-61
2023/04/01 04:22:53;;;;;;;92.43;16.42;;;;;;;4.56;100.00;97675.06;5138689;28;20142;-62
2023/04/01 04:25:19;;;;;;;52.90;14.30;;;;;;;4.74;100.00;97656.38;5139071;28;20074;-64
2023/04/01 04:27:45;;;;;;;55.17;14.18;;;;;;;4.66;100.00;97674.47;5138559;28;20082;-63
2023/04/01 04:30:12;;;;;;;56.58;13.57;;;;;;;4.70;100.00;97673.41;5138600;28;20059;-62
2023/04/01 04:32:38;;;;;;;58.67;13.57;;;;;;;4.79;100.00;97669.66;5138367;28;20138;-61
2023/04/01 04:35:07;;;;;;;131.50;15.48;;;;;;;4.82;100.00;97677.06;5138556;27;20302;-61
2023/04/01 04:37:33;;;;;;;91.45;14.73;;;;;;;4.59;100.00;97683.28;5138435;28;20156;-59
2023/04/01 04:39:58;;;;;;;43.38;12.50;;;;;;;4.77;100.00;97670.03;5138540;28;20047;-59
2023/04/01 04:42:24;;;;;;;69.05;14.27;;;;;;;4.91;100.00;97670.25;5138381;28;20368;-63
2023/04/01 04:44:51;;;;;;;101.50;14.38;;;;;;;4.63;100.00;97664.31;5138432;28;20062;-64
2023/04/01 04:47:20;;;;;;;86.57;14.07;;;;;;;4.86;100.00;97667.03;5138638;28;20069;-60
2023/04/01 04:49:45;;;;;;;72.32;14.05;;;;;;;4.60;100.00;97703.06;5138159;28;20074;-63
2023/04/01 04:52:11;;;;;;;28.52;13.05;;;;;;;4.56;100.00;97683.22;5138295;28;20463;-62
2023/04/01 04:54:37;;;;;;;73.03;15.52;;;;;;;4.85;100.00;97660.03;5138144;28;20100;-61
2023/04/01 04:57:04;;;;;;;78.90;13.65;;;;;;;5.06;100.00;97659.59;5138428;28;20136;-63
2023/04/01 04:59:30;;;;;;;39.60;14.10;;;;;;;5.06;100.00;97676.66;5137873;28;20047;-61
2023/04/01 05:01:57;;;;;;;72.88;14.65;;;;;;;5.00;100.00;97696.34;5138175;28;20126;-66
2023/04/01 05:04:23;;;;;;;154.60;16.40;;;;;;;5.06;100.00;97692.19;5137908;27;20138;-66
2023/04/01 05:06:49;;;;;;;42.67;13.55;;;;;;;5.04;100.00;97692.56;5138099;28;20111;-64
2023/04/01 05:09:15;;;;;;;41.08;13.18;;;;;;;5.27;100.00;97705.34;5138383;28;20047;-62
2023/04/01 05:11:41;;;;;;;127.93;15.05;;;;;;;5.16;100.00;97705.16;5137389;27;20051;-63
2023/04/01 05:14:12;;;;;;;58.78;13.50;;;;;;;5.45;100.00;97702.88;5137854;28;20100;-62
2023/04/01 05:16:38;;;;;;;46.72;13.55;;;;;;;5.23;100.00;97718.06;5137859;28;20142;-64
2023/04/01 05:19:10;;;;;;;57.22;13.45;;;;;;;5.52;100.00;97708.41;5138098;28;20043;-65
2023/04/01 05:21:36;;;;;;;40.50;13.82;;;;;;;5.53;100.00;97729.00;5137685;28;20149;-66
2023/04/01 05:24:02;;;;;;;90.63;13.63;;;;;;;5.60;100.00;97715.53;5138125;28;20046;-66
2023/04/01 05:26:28;;;;;;;55.83;10.18;;;;;;;5.59;100.00;97722.88;5137587;28;20051;-64
2023/04/01 05:28:53;;;;;;;50.38;10.90;;;;;;;5.99;100.00;97728.88;5138010;28;20130;-62
2023/04/01 05:31:19;;;;;;;27.50;9.98;;;;;;;5.79;100.00;97748.03;5137735;28;20393;-63
2023/04/01 05:33:45;;;;;;;33.00;11.23;;;;;;;5.33;100.00;97764.44;5137749;28;20153;-62
2023/04/01 05:36:16;;;;;;;21.45;10.07;;;;;;;5.64;100.00;97749.75;5137472;27;20055;-64
2023/04/01 05:38:45;;;;;;;25.63;9.98;;;;;;;5.73;100.00;97754.94;5137338;28;20065;-66
2023/04/01 05:41:11;;;;;;;16.15;9.20;;;;;;;5.36;100.00;97736.50;5137330;28;20084;-62
2023/04/01 05:43:37;;;;;;;25.75;11.27;;;;;;;5.75;100.00;97727.38;5137392;28;20141;-62
2023/04/01 05:46:03;;;;;;;24.00;11.32;;;;;;;6.33;100.00;97732.41;5137643;28;20137;-65
2023/04/01 05:48:29;;;;;;;41.60;12.02;;;;;;;6.38;100.00;97762.03;5137223;28;20046;-65
2023/04/01 05:50:55;;;;;;;24.60;11.05;;;;;;;6.43;100.00;97779.97;5137739;28;20047;-66
2023/04/01 05:53:22;;;;;;;17.80;10.10;;;;;;;6.49;100.00;97797.53;5137088;28;20416;-62
2023/04/01 05:55:48;;;;;;;66.35;9.73;;;;;;;6.35;100.00;97809.81;5137711;28;20147;-65
2023/04/01 05:58:14;;;;;;;19.10;9.00;;;;;;;6.45;100.00;97811.09;5137380;28;20047;-64
2023/04/01 06:00:40;;;;;;;92.45;10.98;;;;;;;6.10;100.00;97812.22;5137328;28;20058;-61
2023/04/01 06:03:06;;;;;;;62.63;9.63;;;;;;;6.54;100.00;97814.34;5137279;28;20043;-62
2023/04/01 06:05:39;;;;;;;19.65;8.75;;;;;;;6.84;100.00;97824.41;5137113;27;20188;-65
2023/04/01 06:08:11;;;;;;;52.22;8.55;;;;;;;5.96;100.00;97822.09;5137239;28;20289;-62
2023/04/01 06:10:48;;;;;;;46.97;8.38;;;;;;;6.12;100.00;97807.19;5137069;28;20061;-67
2023/04/01 06:13:30;;;;;;;12.68;8.50;;;;;;;6.37;100.00;97793.13;5136917;28;20083;-63
2023/04/01 06:16:04;;;;;;;21.58;9.10;;;;;;;6.77;100.00;97808.75;5136784;28;20111;-63
2023/04/01 06:18:50;;;;;;;45.67;9.90;;;;;;;6.53;100.00;97825.56;5137092;28;20058;-63
2023/04/01 06:21:43;;;;;;;17.83;9.80;;;;;;;6.72;100.00;97808.31;5136941;28;20138;-67
2023/04/01 06:24:33;;;;;;;15.70;9.43;;;;;;;6.98;100.00;97815.59;5139568;27;20105;-62
2023/04/01 06:27:07;;;;;;;35.20;10.15;;;;;;;6.82;100.00;97821.25;5140864;28;20379;-66
2023/04/01 06:29:50;;;;;;;15.50;9.20;;;;;;;6.94;100.00;97803.88;5140318;28;20519;-61
2023/04/01 06:32:31;;;;;;;17.08;9.18;;;;;;;7.45;100.00;97814.88;5140236;28;20409;-66
2023/04/01 06:35:19;;;;;;;24.95;9.32;;;;;;;7.04;100.00;97825.78;5140548;27;20062;-65
2023/04/01 06:38:20;;;;;;;18.60;9.77;;;;;;;7.17;100.00;97828.25;5140325;28;20047;-65
2023/04/01 06:41:08;;;;;;;24.67;10.05;;;;;;;7.24;100.00;97839.22;5133509;28;20357;-65
2023/04/01 06:43:46;;;;;;;15.98;9.38;;;;;;;7.08;100.00;97834.78;5123151;28;20051;-62
2023/04/01 06:46:19;;;;;;;19.30;10.30;;;;;;;7.47;100.00;97839.81;5139958;28;20075;-66
2023/04/01 06:49:06;;;;;;;22.67;9.85;;;;;;;6.89;100.00;97840.41;5140139;28;20134;-66
2023/04/01 06:51:45;;;;;;;23.85;9.43;;;;;;;7.77;100.00;97836.16;5139878;28;20164;-62
2023/04/01 06:54:16;;;;;;;27.20;11.43;;;;;;;7.75;100.00;97849.41;5140456;28;20111;-66
2023/04/01 06:56:46;;;;;;;19.85;10.10;;;;;;;7.95;100.00;97847.19;5139839;28;20051;-66
2023/04/01 06:59:17;;;;;;;18.05;9.10;;;;;;;8.25;100.00;97849.72;5139815;28;20051;-62
2023/04/01 07:01:48;;;;;;;21.63;9.20;;;;;;;8.43;100.00;97839.72;5140221;28;20051;-66
2023/04/01 07:04:18;;;;;;;18.48;10.75;;;;;;;8.28;100.00;97829.84;5139958;28;20134;-66
2023/04/01 07:06:49;;;;;;;23.90;9.18;;;;;;;8.35;100.00;97827.16;5139873;27;20062;-66
2023/04/01 07:09:19;;;;;;;24.27;11.93;;;;;;;8.40;100.00;97812.41;5139831;28;20078;-63
2023/04/01 07:11:45;;;;;;;23.02;10.70;;;;;;;8.37;100.00;97816.66;5140132;28;20157;-62
2023/04/01 07:14:19;;;;;;;25.73;11.02;;;;;;;8.18;100.00;97828.63;5139651;28;20090;-61
2023/04/01 07:16:51;;;;;;;34.05;13.88;;;;;;;8.09;100.00;97830.91;5140207;28;20083;-62
2023/04/01 07:19:22;;;;;;;90.97;14.88;;;;;;;8.04;100.00;97844.94;5139847;28;20043;-64
2023/04/01 07:21:51;;;;;;;37.25;13.27;;;;;;;8.22;100.00;97855.94;5139710;28;20047;-62
2023/04/01 07:24:22;;;;;;;33.17;13.55;;;;;;;8.28;100.00;97856.38;5139592;28;20431;-61
2023/04/01 07:26:52;;;;;;;31.13;12.85;;;;;;;8.14;100.00;97863.31;5139630;28;20082;-62
2023/04/01 07:29:19;;;;;;;40.47;13.65;;;;;;;8.16;100.00;97869.19;5140045;28;20043;-61
2023/04/01 07:31:58;;;;;;;28.88;11.35;;;;;;;8.02;100.00;97869.06;5139420;28;20491;-62
2023/04/01 07:34:26;;;;;;;33.33;12.80;;;;;;;8.08;100.00;97873.03;5139488;27;20058;-62
2023/04/01 07:37:01;;;;;;;27.75;11.98;;;;;;;8.11;100.00;97866.03;5139276;28;20083;-64
2023/04/01 07:39:38;;;;;;;25.58;12.27;;;;;;;8.10;100.00;97867.97;5139652;28;20057;-61
2023/04/01 07:42:13;;;;;;;21.65;11.07;;;;;;;8.06;100.00;97871.84;5139269;28;20140;-61
2023/04/01 07:44:51;;;;;;;25.02;12.10;;;;;;;8.02;100.00;97872.59;5139338;28;20133;-61
2023/04/01 07:47:39;;;;;;;26.67;12.00;;;;;;;7.92;100.00;97877.97;5139600;28;20134;-67
2023/04/01 07:50:16;;;;;;;23.05;12.07;;;;;;;7.89;100.00;97876.78;5139113;28;20134;-66
2023/04/01 07:52:48;;;;;;;24.50;12.50;;;;;;;7.85;100.00;97865.06;5139439;28;20051;-62
2023/04/01 07:55:20;;;;;;;25.63;12.85;;;;;;;7.93;100.00;97863.97;5138927;28;20134;-65
2023/04/01 07:57:52;;;;;;;30.80;14.70;;;;;;;7.72;100.00;97866.50;5139132;28;20150;-63
2023/04/01 08:00:24;;;;;;;26.05;14.05;;;;;;;7.15;100.00;97868.72;5139187;28;20057;-63
2023/04/01 08:03:15;;;;;;;55.33;17.63;;;;;;;7.47;100.00;97826.19;5139039;28;20051;-65
2023/04/01 08:05:50;;;;;;;27.23;15.75;;;;;;;7.71;100.00;97826.75;5138859;27;20195;-67
2023/04/01 08:08:20;;;;;;;31.77;17.00;;;;;;;7.72;100.00;97837.28;5138831;28;20051;-67
2023/04/01 08:10:52;;;;;;;44.88;17.23;;;;;;;7.62;100.00;97829.03;5139284;28;20051;-67
2023/04/01 08:13:29;;;;;;;31.52;17.35;;;;;;;7.91;100.00;97810.94;5138948;28;20187;-64
2023/04/01 08:16:08;;;;;;;27.88;15.25;;;;;;;7.79;100.00;97820.19;5138810;28;20142;-65
2023/04/01 08:18:41;;;;;;;33.95;15.80;;;;;;;7.71;100.00;97830.28;5139025;28;20104;-65
2023/04/01 08:21:13;;;;;;;29.80;14.80;;;;;;;7.87;100.00;97832.72;5138602;28;20445;-63
2023/04/01 08:23:44;;;;;;;25.50;14.82;;;;;;;7.51;100.00;97827.00;5138909;28;20079;-67
2023/04/01 08:26:17;;;;;;;27.98;15.45;;;;;;;7.63;100.00;97819.66;5138509;28;20450;-64
2023/04/01 08:28:46;;;;;;;29.90;15.70;;;;;;;7.55;100.00;97821.56;5138772;28;20471;-66
2023/04/01 08:31:18;;;;;;;29.17;15.52;;;;;;;7.55;100.00;97835.19;5138077;28;20138;-63
2023/04/01 08:33:47;;;;;;;29.13;14.73;;;;;;;7.62;100.00;97824.34;5138427;28;20134;-68
2023/04/01 08:36:37;;;;;;;29.67;13.70;;;;;;;7.67;100.00;97823.22;5138469;27;20334;-63
2023/04/01 08:39:06;;;;;;;30.17;13.15;;;;;;;7.42;100.00;97828.47;5138470;28;20051;-63
2023/04/01 08:42:13;;;;;;;21.05;12.73;;;;;;;7.36;100.00;97829.97;5138581;28;20046;-68
2023/04/01 08:45:00;;;;;;;24.75;12.45;;;;;;;6.96;100.00;97804.28;5138223;28;20421;-67
2023/04/01 08:48:12;;;;;;;21.55;12.63;;;;;;;7.10;100.00;97751.84;5137610;28;20047;-63
2023/04/01 08:51:18;;;;;;;27.38;13.20;;;;;;;6.87;100.00;97700.28;5075172;28;20380;-63
2023/04/01 08:54:07;;;;;;;19.00;11.43;;;;;;;6.66;100.00;97709.81;5137901;28;20059;-67
2023/04/01 08:56:41;;;;;;;21.45;11.00;;;;;;;6.58;100.00;97670.84;5137880;28;20148;-66
2023/04/01 08:59:45;;;;;;;18.48;9.75;;;;;;;6.54;100.00;97642.81;5138196;28;20133;-62
2023/04/01 09:02:35;;;;;;;22.65;9.68;;;;;;;6.57;100.00;97644.78;5122491;28;20065;-62
2023/04/01 09:05:31;;;;;;;10.20;7.22;;;;;;;6.65;100.00;97623.06;5138092;27;20062;-63
2023/04/01 09:08:12;;;;;;;16.15;7.57;;;;;;;6.63;100.00;97633.53;5137931;28;20047;-66
2023/04/01 09:10:54;;;;;;;14.60;7.25;;;;;;;6.25;100.00;97633.56;5137866;28;20324;-66
2023/04/01 09:13:36;;;;;;;12.43;7.50;;;;;;;6.47;100.00;97618.25;5137871;28;20047;-65
2023/04/01 09:16:45;;;;;;;13.35;6.55;;;;;;;6.35;100.00;97622.00;5137801;28;20043;-65
2023/04/01 09:19:20;;;;;;;10.95;7.25;;;;;;;6.45;100.00;97590.59;5055064;28;20063;-61
2023/04/01 09:22:21;;;;;;;10.77;6.80;;;;;;;6.56;100.00;97607.81;5122938;28;20129;-62
2023/04/01 09:25:14;;;;;;;12.88;7.85;;;;;;;6.43;100.00;97614.72;5132991;28;20047;-63
2023/04/01 09:27:45;;;;;;;11.63;7.13;;;;;;;6.65;100.00;97614.88;5137445;28;20054;-66
2023/04/01 09:30:42;;;;;;;13.68;8.48;;;;;;;6.72;100.00;97617.66;5137672;28;20154;-63
2023/04/01 09:33:43;;;;;;;11.13;7.28;;;;;;;6.60;100.00;97614.06;5137183;28;20055;-65
2023/04/01 09:36:18;;;;;;;14.82;8.32;;;;;;;6.63;100.00;97607.09;5137659;27;20487;-63
2023/04/01 09:38:56;;;;;;;12.07;7.88;;;;;;;6.47;100.00;97615.53;5137327;28;20081;-68
2023/04/01 09:41:29;;;;;;;12.90;8.27;;;;;;;6.38;100.00;97593.25;5137539;28;20141;-67
2023/04/01 09:44:02;;;;;;;11.05;7.75;;;;;;;6.74;100.00;97574.50;5137490;28;20050;-66
2023/04/01 09:46:37;;;;;;;13.40;8.60;;;;;;;6.81;100.00;97578.06;5137413;28;20074;-67
2023/04/01 09:49:49;;;;;;;11.45;7.15;;;;;;;6.76;100.00;97602.13;5137579;28;20429;-64
2023/04/01 09:52:25;;;;;;;10.35;7.35;;;;;;;6.69;100.00;97596.63;5034422;28;20053;-62
2023/04/01 09:55:05;;;;;;;12.00;6.97;;;;;;;6.44;100.00;97610.03;5130377;28;20066;-60
2023/04/01 09:58:21;;;;;;;11.10;6.72;;;;;;;6.71;100.00;97614.16;5136170;27;20065;-66
2023/04/01 10:01:15;;;;;;;10.30;6.65;;;;;;;6.20;100.00;97630.38;5137141;28;20403;-66
2023/04/01 10:04:07;;;;;;;11.83;6.83;;;;;;;6.34;100.00;97625.88;5137014;28;20138;-62
2023/04/01 10:07:20;;;;;;;10.90;6.75;;;;;;;6.33;100.00;97618.91;5137377;27;20043;-66
2023/04/01 10:10:26;;;;;;;14.55;7.97;;;;;;;6.22;100.00;97617.97;5137065;28;20051;-63
2023/04/01 10:13:33;;;;;;;12.77;7.60;;;;;;;6.26;100.00;97629.69;5136882;28;20345;-66
2023/04/01 10:16:32;;;;;;;15.77;8.48;;;;;;;6.41;100.00;97616.22;5128613;28;20114;-64
2023/04/01 10:19:20;;;;;;;12.98;7.22;;;;;;;6.16;100.00;97632.31;5137023;28;20130;-63
2023/04/01 10:22:13;;;;;;;11.00;6.25;;;;;;;6.69;100.00;97612.97;5137189;28;20472;-64
2023/04/01 10:25:10;;;;;;;12.23;7.22;;;;;;;6.72;100.00;97634.00;5137262;28;20373;-65
2023/04/01 10:28:05;;;;;;;12.30;7.80;;;;;;;7.03;100.00;97641.66;5136887;28;20135;-63
2023/04/01 10:31:05;;;;;;;12.88;7.90;;;;;;;6.74;100.00;97673.31;5093461;28;20159;-61
2023/04/01 10:34:02;;;;;;;11.23;7.75;;;;;;;6.98;100.00;97696.50;5137048;28;20055;-67
2023/04/01 10:36:56;;;;;;;12.55;7.85;;;;;;;7.10;100.00;97700.88;5136587;27;20160;-65
2023/04/01 10:39:56;;;;;;;15.55;9.43;;;;;;;7.34;100.00;97709.63;5137218;28;20060;-63
2023/04/01 10:43:00;;;;;;;16.55;9.13;;;;;;;7.43;100.00;97726.41;5136966;28;20411;-68
2023/04/01 10:46:03;;;;;;;14.75;8.48;;;;;;;7.43;100.00;97746.31;5134166;28;20306;-65
2023/04/01 10:49:10;;;;;;;17.45;9.52;;;;;;;7.32;100.00;97759.06;5133063;28;20138;-63
2023/04/01 10:52:07;;;;;;;16.50;9.27;;;;;;;7.25;100.00;97753.56;5137068;28;20139;-67
2023/04/01 10:54:49;;;;;;;15.15;8.60;;;;;;;7.23;100.00;97764.03;5096554;28;20055;-65
2023/04/01 10:57:43;;;;;;;16.75;10.52;;;;;;;7.49;100.00;97763.09;5134886;28;20135;-68
2023/04/01 11:00:31;;;;;;;21.30;10.23;;;;;;;7.35;100.00;97760.25;5136702;28;20112;-63
2023/04/01 11:03:46;;;;;;;15.55;9.70;;;;;;;7.30;100.00;97769.56;5136541;28;20061;-63
2023/04/01 11:07:00;;;;;;;19.60;10.50;;;;;;;7.07;100.00;97747.97;5136794;27;20047;-63
2023/04/01 11:10:16;;;;;;;18.92;10.82;;;;;;;7.55;100.00;97734.28;5075712;28;20047;-68
2023/04/01 11:13:19;;;;;;;22.33;11.00;;;;;;;7.41;100.00;97731.47;5139737;28;20134;-63
2023/04/01 11:16:19;;;;;;;18.33;11.63;;;;;;;7.12;100.00;97717.63;5139926;28;20090;-63
2023/04/01 11:19:24;;;;;;;26.10;12.77;;;;;;;7.41;100.00;97696.81;5139922;28;20419;-63
2023/04/01 11:22:11;;;;;;;22.95;12.35;;;;;;;7.32;100.00;97694.41;5139707;28;20047;-65
2023/04/01 11:25:05;;;;;;;28.23;15.20;;;;;;;7.40;100.00;97689.03;5139869;28;20189;-67
2023/04/01 11:27:50;;;;;;;21.80;12.23;;;;;;;7.26;100.00;97686.97;5132707;28;20157;-64
2023/04/01 11:30:29;;;;;;;27.83;12.95;;;;;;;7.29;100.00;97648.03;5139612;28;20055;-62
2023/04/01 11:33:00;;;;;;;26.17;12.32;;;;;;;7.21;100.00;97649.16;5139758;28;20050;-67
2023/04/01 11:35:50;;;;;;;21.52;11.82;;;;;;;7.53;100.00;97638.44;5139450;27;20079;-65
2023/04/01 11:38:42;;;;;;;20.88;11.75;;;;;;;7.49;100.00;97649.31;5139597;28;20141;-63
2023/04/01 11:41:26;;;;;;;19.25;11.55;;;;;;;7.61;100.00;97631.09;5139500;28;20137;-62
2023/04/01 11:44:10;;;;;;;18.80;12.05;;;;;;;7.55;100.00;97658.72;5139469;28;20055;-64
2023/04/01 11:46:45;;;;;;;18.65;11.55;;;;;;;7.89;100.00;97644.84;5139594;28;20078;-67
2023/04/01 11:49:29;;;;;;;28.27;12.50;;;;;;;7.70;100.00;97653.34;5139215;28;20149;-67
2023/04/01 11:52:17;;;;;;;29.17;11.65;;;;;;;7.61;100.00;97642.78;5139275;28;20116;-63
2023/04/01 11:55:08;;;;;;;25.55;12.85;;;;;;;7.97;100.00;97623.84;5139486;28;20525;-68
2023/04/01 11:57:49;;;;;;;18.42;11.88;;;;;;;7.36;100.00;97629.00;5121890;28;20110;-67
2023/04/01 12:00:33;;;;;;;22.25;13.15;;;;;;;7.93;100.00;97590.28;5139444;28;20047;-62